createdAt,value
2018-11-10T00:00:15.246Z,61.10
2018-11-10T00:02:44.089Z,54.20
2018-11-10T00:05:12.942Z,55.87
2018-11-10T00:07:41.491Z,50.70
2018-11-10T00:10:10.707Z,58.00
2018-11-10T00:12:39.445Z,50.23
2018-11-10T00:15:10.676Z,55.73
2018-11-10T00:17:39.504Z,58.93
2018-11-10T00:20:08.499Z,56.40
2018-11-10T00:22:38.155Z,52.23
2018-11-10T00:25:09.585Z,46.40
2018-11-10T00:27:38.148Z,53.90
2018-11-10T00:30:08.663Z,56.10
2018-11-10T00:32:38.033Z,54.17
2018-11-10T00:35:07.169Z,53.00
2018-11-10T00:37:36.173Z,52.10
2018-11-10T00:40:06.350Z,50.50
2018-11-10T00:42:35.634Z,54.53
2018-11-10T00:45:04.437Z,51.90
2018-11-10T00:47:33.956Z,43.60
2018-11-10T00:50:02.756Z,48.87
2018-11-10T00:52:31.346Z,42.30
2018-11-10T00:55:00.140Z,43.10
2018-11-10T00:57:28.713Z,44.53
2018-11-10T00:59:57.842Z,44.37
2018-11-10T01:02:26.420Z,45.13
2018-11-10T01:04:55.116Z,42.27
2018-11-10T01:07:23.663Z,44.87
2018-11-10T01:09:53.889Z,40.23
2018-11-10T01:12:22.441Z,34.37
2018-11-10T01:14:52.230Z,34.63
2018-11-10T01:17:21.429Z,36.97
2018-11-10T01:19:49.948Z,38.53
2018-11-10T01:22:18.943Z,39.13
2018-11-10T01:24:49.788Z,42.87
2018-11-10T01:27:18.587Z,34.87
2018-11-10T01:29:47.930Z,36.00
2018-11-10T01:32:16.769Z,34.20
2018-11-10T01:34:45.305Z,36.50
2018-11-10T01:37:14.133Z,38.07
2018-11-10T01:39:42.823Z,37.60
2018-11-10T01:42:11.761Z,37.33
2018-11-10T01:44:40.363Z,34.13
2018-11-10T01:47:09.027Z,36.20
2018-11-10T01:49:37.782Z,33.77
2018-11-10T01:52:06.345Z,38.80
2018-11-10T01:54:34.931Z,34.10
2018-11-10T01:57:03.653Z,40.50
2018-11-10T01:59:32.181Z,36.37
2018-11-10T02:02:00.939Z,34.17
2018-11-10T02:04:29.516Z,33.17
2018-11-10T02:06:58.578Z,36.63
2018-11-10T02:09:28.015Z,33.03
2018-11-10T02:11:56.743Z,37.57
2018-11-10T02:14:25.853Z,39.90
2018-11-10T02:16:54.580Z,42.83
2018-11-10T02:19:23.577Z,35.13
2018-11-10T02:21:52.527Z,36.17
2018-11-10T02:24:21.826Z,36.20
2018-11-10T02:26:50.717Z,36.30
2018-11-10T02:29:19.402Z,39.50
2018-11-10T02:31:48.019Z,35.53
2018-11-10T02:34:16.659Z,38.43
2018-11-10T02:36:45.463Z,35.00
2018-11-10T02:39:14.026Z,43.97
2018-11-10T02:41:42.557Z,35.70
2018-11-10T02:44:11.740Z,38.83
2018-11-10T02:46:40.412Z,36.80
2018-11-10T02:49:08.932Z,34.10
2018-11-10T02:51:38.167Z,36.87
2018-11-10T02:54:06.681Z,35.33
2018-11-10T02:56:36.381Z,40.67
2018-11-10T02:59:05.105Z,35.83
2018-11-10T03:01:33.925Z,38.87
2018-11-10T03:04:02.519Z,40.40
2018-11-10T03:06:31.742Z,35.30
2018-11-10T03:09:02.070Z,36.13
2018-11-10T03:11:31.577Z,35.77
2018-11-10T03:14:00.465Z,33.57
2018-11-10T03:16:29.161Z,33.67
2018-11-10T03:18:57.921Z,39.07
2018-11-10T03:21:26.561Z,39.93
2018-11-10T03:23:55.815Z,33.17
2018-11-10T03:26:24.505Z,35.57
2018-11-10T03:28:53.061Z,36.00
2018-11-10T03:31:22.329Z,35.37
2018-11-10T03:33:50.855Z,35.20
2018-11-10T03:36:20.287Z,35.77
2018-11-10T03:38:48.813Z,28.90
2018-11-10T03:41:17.859Z,36.90
2018-11-10T03:43:47.041Z,34.67
2018-11-10T03:46:15.837Z,36.73
2018-11-10T03:48:44.414Z,35.97
2018-11-10T03:51:13.421Z,29.83
2018-11-10T03:53:42.377Z,33.17
2018-11-10T03:56:11.393Z,39.37
2018-11-10T03:58:39.951Z,33.53
2018-11-10T04:01:09.799Z,38.53
2018-11-10T04:03:38.622Z,33.13
2018-11-10T04:06:07.316Z,36.47
2018-11-10T04:08:35.875Z,31.33
2018-11-10T04:11:04.821Z,30.40
2018-11-10T04:13:33.491Z,32.07
2018-11-10T04:16:02.348Z,36.33
2018-11-10T04:18:30.889Z,35.33
2018-11-10T04:20:59.695Z,34.67
2018-11-10T04:23:28.598Z,34.17
2018-11-10T04:25:57.411Z,32.93
2018-11-10T04:28:25.980Z,32.27
2018-11-10T04:30:55.085Z,32.70
2018-11-10T04:33:23.636Z,35.03
2018-11-10T04:35:52.330Z,30.30
2018-11-10T04:38:20.841Z,34.30
2018-11-10T04:40:49.947Z,32.13
2018-11-10T04:43:18.471Z,38.00
2018-11-10T04:45:46.975Z,34.23
2018-11-10T04:48:15.859Z,34.33
2018-11-10T04:50:44.497Z,31.10
2018-11-10T04:53:13.237Z,36.83
2018-11-10T04:55:41.781Z,33.17
2018-11-10T04:58:10.617Z,29.50
2018-11-10T05:00:39.161Z,35.40
2018-11-10T05:03:08.163Z,29.57
2018-11-10T05:05:36.860Z,29.63
2018-11-10T05:08:05.733Z,34.50
2018-11-10T05:10:35.065Z,28.63
2018-11-10T05:13:03.689Z,33.70
2018-11-10T05:15:32.435Z,30.60
2018-11-10T05:18:01.167Z,33.83
2018-11-10T05:20:30.201Z,33.40
2018-11-10T05:22:59.145Z,33.67
2018-11-10T05:25:27.800Z,30.03
2018-11-10T05:27:56.344Z,37.73
2018-11-10T05:30:25.167Z,33.17
2018-11-10T05:32:58.592Z,38.63
2018-11-10T05:35:29.076Z,37.30
2018-11-10T05:38:00.789Z,39.10
2018-11-10T05:40:29.734Z,40.10
2018-11-10T05:42:58.297Z,35.27
2018-11-10T05:45:30.786Z,41.83
2018-11-10T05:47:59.491Z,43.00
2018-11-10T05:50:28.463Z,42.50
2018-11-10T05:52:57.014Z,42.23
2018-11-10T05:55:26.541Z,42.53
2018-11-10T05:57:55.653Z,51.80
2018-11-10T06:00:24.257Z,43.80
2018-11-10T06:02:52.805Z,46.50
2018-11-10T06:05:21.557Z,51.73
2018-11-10T06:07:50.125Z,48.07
2018-11-10T06:10:18.956Z,45.90
2018-11-10T06:12:47.389Z,55.00
2018-11-10T06:15:17.078Z,54.23
2018-11-10T06:17:45.621Z,44.07
2018-11-10T06:20:14.759Z,67.17
2018-11-10T06:22:47.887Z,52.23
2018-11-10T06:25:16.614Z,70.73
2018-11-10T06:27:45.712Z,64.93
2018-11-10T06:30:15.406Z,81.37
2018-11-10T06:32:44.084Z,79.23
2018-11-10T06:35:13.552Z,78.73
2018-11-10T06:37:42.580Z,78.70
2018-11-10T06:40:13.148Z,85.57
2018-11-10T06:42:42.456Z,88.60
2018-11-10T06:45:11.245Z,88.00
2018-11-10T06:47:40.138Z,84.00
2018-11-10T06:50:10.492Z,97.13
2018-11-10T06:52:39.784Z,91.63
2018-11-10T06:55:09.524Z,104.73
2018-11-10T06:57:38.338Z,87.07
2018-11-10T07:00:09.104Z,94.03
2018-11-10T07:02:37.958Z,87.03
2018-11-10T07:05:07.085Z,88.90
2018-11-10T07:07:37.205Z,85.93
2018-11-10T07:10:06.461Z,90.47
2018-11-10T07:12:35.576Z,91.10
2018-11-10T07:15:07.610Z,93.63
2018-11-10T07:17:36.810Z,96.70
2018-11-10T07:20:06.079Z,89.70
2018-11-10T07:22:35.651Z,94.33
2018-11-10T07:25:05.255Z,100.27
2018-11-10T07:27:34.416Z,93.53
2018-11-10T07:30:03.667Z,89.87
2018-11-10T07:32:32.456Z,78.80
2018-11-10T07:35:00.997Z,89.10
2018-11-10T07:37:30.241Z,106.60
2018-11-10T07:39:58.830Z,85.63
2018-11-10T07:42:27.788Z,83.43
2018-11-10T07:44:56.472Z,87.37
2018-11-10T07:47:25.012Z,89.40
2018-11-10T07:49:53.840Z,80.87
2018-11-10T07:52:22.380Z,87.67
2018-11-10T07:54:51.615Z,94.40
2018-11-10T07:57:20.774Z,89.73
2018-11-10T07:59:50.246Z,84.30
2018-11-10T08:02:18.792Z,88.63
2018-11-10T08:04:47.763Z,84.37
2018-11-10T08:07:16.338Z,89.93
2018-11-10T08:09:45.599Z,80.57
2018-11-10T08:12:14.119Z,82.83
2018-11-10T08:14:42.673Z,72.03
2018-11-10T08:17:11.686Z,90.23
2018-11-10T08:19:40.447Z,86.63
2018-11-10T08:22:09.050Z,75.37
2018-11-10T08:24:38.525Z,79.80
2018-11-10T08:27:07.380Z,69.73
2018-11-10T08:29:36.219Z,83.67
2018-11-10T08:32:04.788Z,80.13
2018-11-10T08:34:33.566Z,69.43
2018-11-10T08:37:02.198Z,80.97
2018-11-10T08:39:31.071Z,79.47
2018-11-10T08:41:59.706Z,74.00
2018-11-10T08:44:28.740Z,74.13
2018-11-10T08:46:57.308Z,79.50
2018-11-10T08:49:26.497Z,71.40
2018-11-10T08:51:55.166Z,73.07
2018-11-10T08:54:24.390Z,68.20
2018-11-10T08:56:53.034Z,68.30
2018-11-10T08:59:21.808Z,64.00
2018-11-10T09:01:50.506Z,68.27
2018-11-10T09:04:20.372Z,74.43
2018-11-10T09:06:48.904Z,59.60
2018-11-10T09:09:18.259Z,67.97
2018-11-10T09:11:47.498Z,58.27
2018-11-10T09:14:16.394Z,66.57
2018-11-10T09:16:45.171Z,59.33
2018-11-10T09:19:14.406Z,66.20
2018-11-10T09:21:43.893Z,60.40
2018-11-10T09:24:12.496Z,57.20
2018-11-10T09:26:41.402Z,73.40
2018-11-10T09:29:10.379Z,58.70
2018-11-10T09:31:39.040Z,55.83
2018-11-10T09:34:07.623Z,52.97
2018-11-10T09:36:38.698Z,61.23
2018-11-10T09:39:07.956Z,59.23
2018-11-10T09:41:37.398Z,47.07
2018-11-10T09:44:06.742Z,59.23
2018-11-10T09:46:35.390Z,47.10
2018-11-10T09:49:04.306Z,47.60
2018-11-10T09:51:32.878Z,49.23
2018-11-10T09:54:01.681Z,52.17
2018-11-10T09:56:30.269Z,47.13
2018-11-10T09:58:59.441Z,41.43
2018-11-10T10:01:28.259Z,52.20
2018-11-10T10:03:56.761Z,57.47
2018-11-10T10:06:26.116Z,42.33
2018-11-10T10:08:54.752Z,39.33
2018-11-10T10:11:23.481Z,57.47
2018-11-10T10:13:52.398Z,34.50
2018-11-10T10:16:21.455Z,43.50
2018-11-10T10:18:50.575Z,43.67
2018-11-10T10:21:19.560Z,36.13
2018-11-10T10:23:49.632Z,39.67
2018-11-10T10:26:18.363Z,37.87
2018-11-10T10:28:47.424Z,38.77
2018-11-10T10:31:16.668Z,35.80
2018-11-10T10:33:45.414Z,36.17
2018-11-10T10:36:14.016Z,36.03
2018-11-10T10:38:42.796Z,37.20
2018-11-10T10:41:11.613Z,38.67
2018-11-10T10:43:40.785Z,30.33
2018-11-10T10:46:09.813Z,31.57
2018-11-10T10:48:38.418Z,34.77
2018-11-10T10:51:07.376Z,30.60
2018-11-10T10:53:35.912Z,37.67
2018-11-10T10:56:04.988Z,28.90
2018-11-10T10:58:33.432Z,31.93
2018-11-10T11:01:07.860Z,38.83
2018-11-10T11:03:41.714Z,37.00
2018-11-10T11:06:10.961Z,33.27
2018-11-10T11:08:39.557Z,36.70
2018-11-10T11:11:09.395Z,33.17
2018-11-10T11:13:37.949Z,36.40
2018-11-10T11:16:07.867Z,32.23
2018-11-10T11:18:36.465Z,27.20
2018-11-10T11:21:06.185Z,36.60
2018-11-10T11:23:35.323Z,29.50
2018-11-10T11:26:04.346Z,36.70
2018-11-10T11:28:32.890Z,27.17
2018-11-10T11:31:01.713Z,28.23
2018-11-10T11:33:30.501Z,37.67
2018-11-10T11:35:59.200Z,34.77
2018-11-10T11:38:28.181Z,31.33
2018-11-10T11:40:57.278Z,35.87
2018-11-10T11:43:25.869Z,33.17
2018-11-10T11:45:54.897Z,34.30
2018-11-10T11:48:23.775Z,32.37
2018-11-10T11:50:52.668Z,35.13
2018-11-10T11:53:21.273Z,30.07
2018-11-10T11:55:50.195Z,31.97
2018-11-10T11:58:18.970Z,36.57
2018-11-10T12:00:47.596Z,40.03
2018-11-10T12:03:16.237Z,35.53
2018-11-10T12:05:45.422Z,33.67
2018-11-10T12:08:13.979Z,36.43
2018-11-10T12:10:43.205Z,32.33
2018-11-10T12:13:11.949Z,32.20
2018-11-10T12:15:40.590Z,37.20
2018-11-10T12:18:10.013Z,30.60
2018-11-10T12:20:38.591Z,32.53
2018-11-10T12:23:07.995Z,30.80
2018-11-10T12:25:36.553Z,35.13
2018-11-10T12:28:06.019Z,31.70
2018-11-10T12:30:34.727Z,32.30
2018-11-10T12:33:03.758Z,33.10
2018-11-10T12:35:32.477Z,36.43
2018-11-10T12:38:01.201Z,27.93
2018-11-10T12:40:30.039Z,33.73
2018-11-10T12:42:58.602Z,32.57
2018-11-10T12:45:28.231Z,37.13
2018-11-10T12:47:56.799Z,33.50
2018-11-10T12:50:25.895Z,29.87
2018-11-10T12:52:54.469Z,36.40
2018-11-10T12:55:23.583Z,31.77
2018-11-10T12:57:52.214Z,30.57
2018-11-10T13:00:21.007Z,32.60
2018-11-10T13:02:52.805Z,35.00
2018-11-10T13:05:22.069Z,33.43
2018-11-10T13:07:50.642Z,32.63
2018-11-10T13:10:20.433Z,35.27
2018-11-10T13:12:48.967Z,35.20
2018-11-10T13:15:17.782Z,35.10
2018-11-10T13:17:46.357Z,29.70
2018-11-10T13:20:16.170Z,38.70
2018-11-10T13:22:44.863Z,33.83
2018-11-10T13:25:14.421Z,32.20
2018-11-10T13:27:43.018Z,34.43
2018-11-10T13:30:13.608Z,31.50
2018-11-10T13:32:42.169Z,35.60
2018-11-10T13:35:11.773Z,35.00
2018-11-10T13:37:40.537Z,42.13
2018-11-10T13:40:09.969Z,36.23
2018-11-10T13:42:39.643Z,39.13
2018-11-10T13:45:10.041Z,35.77
2018-11-10T13:47:38.890Z,41.80
2018-11-10T13:50:09.425Z,37.27
2018-11-10T13:52:39.423Z,38.80
2018-11-10T13:55:07.817Z,35.83
2018-11-10T13:57:37.034Z,36.53
2018-11-10T14:00:08.437Z,37.43
2018-11-10T14:02:36.953Z,35.10
2018-11-10T14:05:06.049Z,44.30
2018-11-10T14:07:34.580Z,42.63
2018-11-10T14:10:04.642Z,38.83
2018-11-10T14:12:33.246Z,36.50
2018-11-10T14:15:02.236Z,37.80
2018-11-10T14:17:30.811Z,38.57
2018-11-10T14:20:00.782Z,45.20
2018-11-10T14:22:29.939Z,36.93
2018-11-10T14:24:58.763Z,36.50
2018-11-10T14:27:27.888Z,44.23
2018-11-10T14:29:57.012Z,45.90
2018-11-10T14:32:27.340Z,44.20
2018-11-10T14:34:56.623Z,46.57
2018-11-10T14:37:25.161Z,48.00
2018-11-10T14:39:53.956Z,39.00
2018-11-10T14:42:22.467Z,38.60
2018-11-10T14:44:52.367Z,45.83
2018-11-10T14:47:21.375Z,45.83
2018-11-10T14:49:50.167Z,43.03
2018-11-10T14:52:19.595Z,47.87
2018-11-10T14:54:48.354Z,45.73
2018-11-10T14:57:16.904Z,43.80
2018-11-10T14:59:45.727Z,46.80
2018-11-10T15:02:14.384Z,57.00
2018-11-10T15:04:43.300Z,47.80
2018-11-10T15:07:11.857Z,45.77
2018-11-10T15:09:41.509Z,42.43
2018-11-10T15:12:10.172Z,44.90
2018-11-10T15:14:39.289Z,47.83
2018-11-10T15:17:07.851Z,46.73
2018-11-10T15:19:36.855Z,50.57
2018-11-10T15:22:06.789Z,47.43
2018-11-10T15:24:36.270Z,47.53
2018-11-10T15:27:04.941Z,47.53
2018-11-10T15:29:33.852Z,46.70
2018-11-10T15:32:02.405Z,48.70
2018-11-10T15:34:31.281Z,49.23
2018-11-10T15:37:00.333Z,49.10
2018-11-10T15:39:29.034Z,48.17
2018-11-10T15:41:57.903Z,51.40
2018-11-10T15:44:26.627Z,50.00
2018-11-10T15:46:55.473Z,58.07
2018-11-10T15:49:24.369Z,53.97
2018-11-10T15:51:53.455Z,56.60
2018-11-10T15:54:22.072Z,50.27
2018-11-10T15:56:51.703Z,56.17
2018-11-10T15:59:20.252Z,53.00
2018-11-10T16:01:49.022Z,54.63
2018-11-10T16:04:17.604Z,61.63
2018-11-10T16:06:46.611Z,53.20
2018-11-10T16:09:15.177Z,59.40
2018-11-10T16:11:46.347Z,51.57
2018-11-10T16:14:14.911Z,58.73
2018-11-10T16:16:44.014Z,63.87
2018-11-10T16:19:12.643Z,54.10
2018-11-10T16:21:42.407Z,53.97
2018-11-10T16:24:11.325Z,59.73
2018-11-10T16:26:39.899Z,57.03
2018-11-10T16:29:08.866Z,51.20
2018-11-10T16:31:37.714Z,55.57
2018-11-10T16:34:06.539Z,55.33
2018-11-10T16:36:35.147Z,47.30
2018-11-10T16:39:04.277Z,61.47
2018-11-10T16:41:33.311Z,59.10
2018-11-10T16:44:02.018Z,55.67
2018-11-10T16:46:30.633Z,54.70
2018-11-10T16:49:01.191Z,53.60
2018-11-10T16:51:32.542Z,53.50
2018-11-10T16:54:01.679Z,65.30
2018-11-10T16:56:30.294Z,55.70
2018-11-10T16:58:59.323Z,59.13
2018-11-10T17:01:27.851Z,59.93
2018-11-10T17:03:56.615Z,53.90
2018-11-10T17:06:25.247Z,55.83
2018-11-10T17:08:54.265Z,58.00
2018-11-10T17:11:22.910Z,52.10
2018-11-10T17:13:53.823Z,59.73
2018-11-10T17:16:23.306Z,62.70
2018-11-10T17:18:52.380Z,58.60
2018-11-10T17:21:22.079Z,61.80
2018-11-10T17:23:51.340Z,59.67
2018-11-10T17:26:19.953Z,59.90
2018-11-10T17:28:49.467Z,70.83
2018-11-10T17:31:18.058Z,72.87
2018-11-10T17:33:47.087Z,56.40
2018-11-10T17:36:15.806Z,60.23
2018-11-10T17:38:44.404Z,58.57
2018-11-10T17:41:13.247Z,59.23
2018-11-10T17:43:41.984Z,68.77
2018-11-10T17:46:10.968Z,59.83
2018-11-10T17:48:39.609Z,72.87
2018-11-10T17:51:09.028Z,56.20
2018-11-10T17:53:37.534Z,57.17
2018-11-10T17:56:06.410Z,60.27
2018-11-10T17:58:35.981Z,54.90
2018-11-10T18:01:05.214Z,64.03
2018-11-10T18:03:34.155Z,59.77
2018-11-10T18:06:03.188Z,67.43
2018-11-10T18:08:31.842Z,58.80
2018-11-10T18:11:00.492Z,67.80
2018-11-10T18:13:30.020Z,63.77
2018-11-10T18:15:58.758Z,62.40
2018-11-10T18:18:27.346Z,56.10
2018-11-10T18:20:56.821Z,62.20
2018-11-10T18:23:25.504Z,62.37
2018-11-10T18:25:55.248Z,54.57
2018-11-10T18:28:23.779Z,57.27
2018-11-10T18:30:52.503Z,62.57
2018-11-10T18:33:21.084Z,61.00
2018-11-10T18:35:51.125Z,57.93
2018-11-10T18:38:19.954Z,65.97
2018-11-10T18:40:49.506Z,54.60
2018-11-10T18:43:18.703Z,52.33
2018-11-10T18:45:47.671Z,58.33
2018-11-10T18:48:16.218Z,60.30
2018-11-10T18:50:46.078Z,51.43
2018-11-10T18:53:15.592Z,55.23
2018-11-10T18:55:44.142Z,60.43
2018-11-10T18:58:13.048Z,45.80
2018-11-10T19:00:42.062Z,63.73
2018-11-10T19:03:10.664Z,51.93
2018-11-10T19:05:40.046Z,51.87
2018-11-10T19:08:09.334Z,59.60
2018-11-10T19:10:38.197Z,54.30
2018-11-10T19:13:06.804Z,58.13
2018-11-10T19:15:35.806Z,50.37
2018-11-10T19:18:04.376Z,54.20
2018-11-10T19:20:34.102Z,60.07
2018-11-10T19:23:03.560Z,57.90
2018-11-10T19:25:33.001Z,52.53
2018-11-10T19:28:01.527Z,51.70
2018-11-10T19:30:30.550Z,50.60
2018-11-10T19:32:59.132Z,58.30
2018-11-10T19:35:28.018Z,57.53
2018-11-10T19:37:56.713Z,62.13
2018-11-10T19:40:27.178Z,63.80
2018-11-10T19:42:55.826Z,56.73
2018-11-10T19:45:24.947Z,63.30
2018-11-10T19:47:54.290Z,62.80
2018-11-10T19:50:23.035Z,68.20
2018-11-10T19:52:52.148Z,57.57
2018-11-10T19:55:21.458Z,60.63
2018-11-10T19:57:51.811Z,59.93
2018-11-10T20:00:22.190Z,59.00
2018-11-10T20:02:50.822Z,56.60
2018-11-10T20:05:20.120Z,55.97
2018-11-10T20:07:49.208Z,67.53
2018-11-10T20:10:18.349Z,58.90
2018-11-10T20:12:48.161Z,62.83
2018-11-10T20:15:18.160Z,60.73
2018-11-10T20:17:47.188Z,71.90
2018-11-10T20:20:17.561Z,59.77
2018-11-10T20:22:46.159Z,55.00
2018-11-10T20:25:16.796Z,63.50
2018-11-10T20:27:45.831Z,54.97
2018-11-10T20:30:16.111Z,63.73
2018-11-10T20:32:45.105Z,55.80
2018-11-10T20:35:14.346Z,58.13
2018-11-10T20:37:43.727Z,49.70
2018-11-10T20:40:13.727Z,65.43
2018-11-10T20:42:43.071Z,57.57
2018-11-10T20:45:14.501Z,60.80
2018-11-10T20:47:43.510Z,49.13
2018-11-10T20:50:13.034Z,50.17
2018-11-10T20:52:41.601Z,53.30
2018-11-10T20:55:11.148Z,55.30
2018-11-10T20:57:40.522Z,66.03
2018-11-10T21:00:11.733Z,55.13
2018-11-10T21:02:41.636Z,54.50
2018-11-10T21:05:11.588Z,56.90
2018-11-10T21:07:41.302Z,60.43
2018-11-10T21:10:13.670Z,60.70
2018-11-10T21:12:43.466Z,53.03
2018-11-10T21:15:12.556Z,66.57
2018-11-10T21:17:42.503Z,49.33
2018-11-10T21:20:12.138Z,56.77
2018-11-10T21:22:41.095Z,59.40
2018-11-10T21:25:12.343Z,56.07
2018-11-10T21:27:42.035Z,59.73
2018-11-10T21:30:13.548Z,58.50
2018-11-10T21:32:43.193Z,55.43
2018-11-10T21:35:12.630Z,58.93
2018-11-10T21:37:41.601Z,56.17
2018-11-10T21:40:17.956Z,58.47
2018-11-10T21:42:50.124Z,53.97
2018-11-10T21:45:19.921Z,55.27
2018-11-10T21:47:49.026Z,57.77
2018-11-10T21:50:19.357Z,68.23
2018-11-10T21:52:48.050Z,62.57
2018-11-10T21:55:18.134Z,56.23
2018-11-10T21:57:47.445Z,54.10
2018-11-10T22:00:17.895Z,58.83
2018-11-10T22:02:47.092Z,65.67
2018-11-10T22:05:16.916Z,61.17
2018-11-10T22:07:45.650Z,55.23
2018-11-10T22:10:16.297Z,59.93
2018-11-10T22:12:45.918Z,46.67
2018-11-10T22:15:18.610Z,60.30
2018-11-10T22:17:48.698Z,49.13
2018-11-10T22:20:19.775Z,50.20
2018-11-10T22:22:49.391Z,44.80
2018-11-10T22:25:19.027Z,55.30
2018-11-10T22:27:49.157Z,60.03
2018-11-10T22:30:19.394Z,53.50
2018-11-10T22:32:49.314Z,66.90
2018-11-10T22:35:18.741Z,55.33
2018-11-10T22:37:47.950Z,47.73
2018-11-10T22:40:18.664Z,48.50
2018-11-10T22:42:48.562Z,64.10
2018-11-10T22:45:19.483Z,49.00
2018-11-10T22:47:48.500Z,48.73
2018-11-10T22:50:21.128Z,70.90
2018-11-10T22:52:49.682Z,63.00
2018-11-10T22:55:18.670Z,52.47
2018-11-10T22:57:47.228Z,84.70
2018-11-10T23:00:18.701Z,53.07
2018-11-10T23:02:51.579Z,56.63
2018-11-10T23:05:21.421Z,50.77
2018-11-10T23:07:50.063Z,46.73
2018-11-10T23:10:19.391Z,52.37
2018-11-10T23:12:48.992Z,51.30
2018-11-10T23:15:17.931Z,52.67
2018-11-10T23:17:47.134Z,52.57
2018-11-10T23:20:17.624Z,50.53
2018-11-10T23:22:46.232Z,45.77
2018-11-10T23:25:16.638Z,52.73
2018-11-10T23:27:45.641Z,60.27
2018-11-10T23:30:16.440Z,48.87
2018-11-10T23:32:44.996Z,50.10
2018-11-10T23:35:13.622Z,47.17
2018-11-10T23:37:42.350Z,51.80
2018-11-10T23:40:13.547Z,59.87
2018-11-10T23:42:42.756Z,54.90
2018-11-10T23:45:11.941Z,55.53
2018-11-10T23:47:40.741Z,55.37
2018-11-10T23:50:14.258Z,60.50
2018-11-10T23:52:43.226Z,55.23
2018-11-10T23:55:13.626Z,52.03
2018-11-10T23:57:42.821Z,57.33
